createdAt,value
2023-05-20T00:02:05.834Z,8.03
2023-05-20T00:04:34.119Z,7.03
2023-05-20T00:07:03.970Z,8.00
2023-05-20T00:09:32.254Z,8.10
2023-05-20T00:12:02.755Z,6.90
2023-05-20T00:14:31.111Z,7.57
2023-05-20T00:16:59.515Z,7.87
2023-05-20T00:19:28.029Z,7.30
2023-05-20T00:21:58.046Z,7.80
2023-05-20T00:24:26.596Z,7.50
2023-05-20T00:26:55.154Z,8.57
2023-05-20T00:29:24.810Z,6.90
2023-05-20T00:31:53.133Z,7.43
2023-05-20T00:34:21.767Z,7.80
2023-05-20T00:36:51.580Z,7.37
2023-05-20T00:39:19.905Z,7.20
2023-05-20T00:41:48.199Z,7.07
2023-05-20T00:44:18.079Z,7.90
2023-05-20T00:46:50.611Z,7.40
2023-05-20T00:49:19.540Z,8.03
2023-05-20T00:51:48.577Z,7.10
2023-05-20T00:54:17.241Z,7.23
2023-05-20T00:56:46.329Z,7.80
2023-05-20T00:59:14.712Z,8.50
2023-05-20T01:01:43.586Z,7.43
2023-05-20T01:04:13.441Z,7.23
2023-05-20T01:06:41.919Z,7.80
2023-05-20T01:09:10.311Z,7.60
2023-05-20T01:11:46.080Z,8.37
2023-05-20T01:14:17.439Z,7.43
2023-05-20T01:16:48.179Z,8.70
2023-05-20T01:19:28.513Z,7.87
2023-05-20T01:21:58.301Z,7.57
2023-05-20T01:24:28.150Z,7.60
2023-05-20T01:26:58.092Z,7.50
2023-05-20T01:29:26.761Z,6.70
2023-05-20T01:31:58.536Z,7.83
2023-05-20T01:34:27.238Z,7.20
2023-05-20T01:36:56.989Z,7.20
2023-05-20T01:39:26.615Z,7.60
2023-05-20T01:41:57.772Z,7.20
2023-05-20T01:44:26.191Z,8.17
2023-05-20T01:46:55.774Z,7.97
2023-05-20T01:49:24.052Z,7.70
2023-05-20T01:51:52.382Z,7.10
2023-05-20T01:54:21.453Z,7.43
2023-05-20T01:56:51.485Z,7.10
2023-05-20T01:59:21.231Z,7.77
2023-05-20T02:01:49.604Z,7.30
2023-05-20T02:04:19.263Z,7.53
2023-05-20T02:06:47.572Z,7.73
2023-05-20T02:09:16.023Z,7.43
2023-05-20T02:11:44.376Z,7.73
2023-05-20T02:14:12.741Z,7.80
2023-05-20T02:16:42.558Z,8.60
2023-05-20T02:19:13.064Z,8.03
2023-05-20T02:21:44.183Z,7.40
2023-05-20T02:24:12.506Z,7.33
2023-05-20T02:26:41.270Z,7.30
2023-05-20T02:29:09.762Z,7.60
2023-05-20T02:31:38.208Z,8.13
2023-05-20T02:34:08.013Z,8.97
2023-05-20T02:36:36.618Z,7.03
2023-05-20T02:39:05.236Z,7.23
2023-05-20T02:41:33.715Z,8.60
2023-05-20T02:44:02.122Z,7.10
2023-05-20T02:46:30.620Z,7.13
2023-05-20T02:48:58.913Z,7.07
2023-05-20T02:51:29.968Z,7.77
2023-05-20T02:53:58.283Z,7.57
2023-05-20T02:56:27.215Z,6.97
2023-05-20T02:58:55.988Z,7.20
2023-05-20T03:01:24.573Z,7.13
2023-05-20T03:03:52.974Z,7.40
2023-05-20T03:06:21.360Z,6.80
2023-05-20T03:08:51.143Z,7.40
2023-05-20T03:11:19.651Z,6.33
2023-05-20T03:13:47.867Z,7.07
2023-05-20T03:16:16.825Z,7.53
2023-05-20T03:18:46.462Z,6.77
2023-05-20T03:21:14.825Z,7.50
2023-05-20T03:23:43.061Z,7.33
2023-05-20T03:26:13.122Z,7.83
2023-05-20T03:28:41.529Z,6.80
2023-05-20T03:31:09.842Z,7.97
2023-05-20T03:33:38.204Z,6.90
2023-05-20T03:36:07.857Z,6.67
2023-05-20T03:38:36.339Z,7.40
2023-05-20T03:41:04.735Z,7.40
2023-05-20T03:43:34.432Z,7.20
2023-05-20T03:46:02.673Z,7.30
2023-05-20T03:48:31.203Z,7.40
2023-05-20T03:50:59.484Z,6.93
2023-05-20T03:53:27.750Z,7.70
2023-05-20T03:55:56.063Z,6.90
2023-05-20T03:58:25.375Z,6.73
2023-05-20T04:00:55.055Z,7.63
2023-05-20T04:03:23.672Z,7.10
2023-05-20T04:05:52.208Z,7.40
2023-05-20T04:08:22.171Z,7.27
2023-05-20T04:10:50.480Z,7.70
2023-05-20T04:13:18.769Z,8.10
2023-05-20T04:15:47.133Z,7.60
2023-05-20T04:18:16.894Z,8.43
2023-05-20T04:20:45.518Z,8.43
2023-05-20T04:23:14.292Z,7.67
2023-05-20T04:25:44.707Z,6.60
2023-05-20T04:28:14.258Z,6.90
2023-05-20T04:30:42.598Z,7.57
2023-05-20T04:33:11.353Z,7.73
2023-05-20T04:35:41.857Z,6.77
2023-05-20T04:38:10.278Z,7.07
2023-05-20T04:40:39.900Z,7.60
2023-05-20T04:43:08.244Z,6.93
2023-05-20T04:45:36.984Z,6.60
2023-05-20T04:48:06.222Z,7.50
2023-05-20T04:50:34.970Z,7.10
2023-05-20T04:53:04.658Z,7.10
2023-05-20T04:55:33.406Z,7.20
2023-05-20T04:58:02.208Z,7.33
2023-05-20T05:00:30.549Z,7.00
2023-05-20T05:02:59.020Z,7.77
2023-05-20T05:05:27.540Z,6.70
2023-05-20T05:07:55.845Z,7.33
2023-05-20T05:10:25.644Z,7.73
2023-05-20T05:12:53.918Z,8.00
2023-05-20T05:15:22.349Z,6.83
2023-05-20T05:17:51.021Z,7.53
2023-05-20T05:20:19.819Z,7.10
2023-05-20T05:22:48.139Z,7.23
2023-05-20T05:25:16.531Z,7.73
2023-05-20T05:27:47.939Z,7.67
2023-05-20T05:30:16.266Z,7.67
2023-05-20T05:32:44.741Z,7.23
2023-05-20T05:35:13.093Z,8.17
2023-05-20T05:37:41.406Z,8.27
2023-05-20T05:40:10.392Z,8.60
2023-05-20T05:42:38.647Z,6.70
2023-05-20T05:45:10.134Z,7.80
2023-05-20T05:47:38.489Z,6.50
2023-05-20T05:50:07.389Z,7.20
2023-05-20T05:52:35.716Z,7.07
2023-05-20T05:55:04.406Z,6.80
2023-05-20T05:57:32.816Z,6.83
2023-05-20T06:00:01.388Z,6.90
2023-05-20T06:02:31.417Z,7.10
2023-05-20T06:04:59.860Z,6.90
2023-05-20T06:07:28.137Z,7.37
2023-05-20T06:09:56.529Z,7.37
2023-05-20T06:12:25.012Z,6.40
2023-05-20T06:14:53.280Z,6.73
2023-05-20T06:17:21.846Z,6.30
2023-05-20T06:19:51.553Z,6.67
2023-05-20T06:22:19.992Z,6.40
2023-05-20T06:24:48.437Z,7.13
2023-05-20T06:27:16.711Z,6.20
2023-05-20T06:29:45.064Z,6.50
2023-05-20T06:32:13.440Z,6.43
2023-05-20T06:34:42.213Z,5.87
2023-05-20T06:37:12.106Z,6.20
2023-05-20T06:39:40.359Z,6.50
2023-05-20T06:42:08.628Z,6.60
2023-05-20T06:44:36.963Z,5.97
2023-05-20T06:47:05.650Z,5.40
2023-05-20T06:49:33.930Z,5.83
2023-05-20T06:52:02.287Z,7.00
2023-05-20T06:54:34.251Z,5.93
2023-05-20T06:57:02.770Z,5.60
2023-05-20T06:59:31.179Z,5.90
2023-05-20T07:01:59.943Z,6.10
2023-05-20T07:04:28.363Z,6.20
2023-05-20T07:06:56.878Z,6.03
2023-05-20T07:09:25.266Z,6.30
2023-05-20T07:11:55.041Z,6.97
2023-05-20T07:14:23.326Z,6.40
2023-05-20T07:16:51.826Z,6.33
2023-05-20T07:19:20.353Z,6.50
2023-05-20T07:21:49.917Z,6.63
2023-05-20T07:24:18.354Z,7.03
2023-05-20T07:26:46.695Z,7.07
2023-05-20T07:29:16.461Z,6.33
2023-05-20T07:31:44.959Z,6.03
2023-05-20T07:34:13.283Z,6.30
2023-05-20T07:36:41.963Z,5.93
2023-05-20T07:39:13.492Z,6.67
2023-05-20T07:41:43.550Z,7.03
2023-05-20T07:44:13.181Z,6.67
2023-05-20T07:46:43.125Z,7.40
2023-05-20T07:49:11.664Z,7.60
2023-05-20T07:51:40.025Z,6.90
2023-05-20T07:54:08.516Z,8.20
2023-05-20T07:56:36.782Z,7.90
2023-05-20T07:59:05.276Z,9.43
2023-05-20T08:01:33.631Z,9.37
2023-05-20T08:04:03.619Z,9.33
2023-05-20T08:06:32.775Z,9.13
2023-05-20T08:09:01.668Z,9.53
2023-05-20T08:11:29.985Z,9.50
2023-05-20T08:13:58.304Z,10.53
2023-05-20T08:16:26.728Z,10.47
2023-05-20T08:18:55.131Z,10.70
2023-05-20T08:21:24.957Z,11.67
2023-05-20T08:23:53.348Z,10.50
2023-05-20T08:26:22.109Z,10.83
2023-05-20T08:28:50.621Z,11.20
2023-05-20T08:31:19.761Z,11.63
2023-05-20T08:33:48.199Z,11.13
2023-05-20T08:36:17.247Z,10.20
2023-05-20T08:38:47.149Z,11.10
2023-05-20T08:41:15.822Z,10.30
2023-05-20T08:43:45.217Z,10.23
2023-05-20T08:46:16.192Z,9.43
2023-05-20T08:48:46.403Z,9.50
2023-05-20T08:51:17.046Z,9.80
2023-05-20T08:53:47.865Z,9.20
2023-05-20T08:56:18.092Z,9.37
2023-05-20T08:58:46.978Z,10.47
2023-05-20T09:01:15.445Z,9.37
2023-05-20T09:03:44.650Z,9.10
2023-05-20T09:06:18.477Z,9.27
2023-05-20T09:08:50.466Z,8.43
2023-05-20T09:11:18.919Z,9.20
2023-05-20T09:13:47.437Z,9.23
2023-05-20T09:16:16.065Z,9.30
2023-05-20T09:18:44.477Z,8.50
2023-05-20T09:21:12.959Z,8.73
2023-05-20T09:23:41.524Z,9.20
2023-05-20T09:26:11.777Z,9.77
2023-05-20T09:28:41.146Z,9.20
2023-05-20T09:31:10.078Z,8.93
2023-05-20T09:33:38.800Z,9.93
2023-05-20T09:36:09.754Z,9.70
2023-05-20T09:38:40.125Z,10.23
2023-05-20T09:41:12.703Z,9.37
2023-05-20T09:43:41.811Z,9.37
2023-05-20T09:46:10.510Z,9.10
2023-05-20T09:48:39.190Z,9.00
2023-05-20T09:51:08.365Z,11.10
2023-05-20T09:53:37.907Z,10.20
2023-05-20T09:56:06.800Z,9.80
2023-05-20T09:58:37.905Z,8.67
2023-05-20T10:01:07.704Z,9.97
2023-05-20T10:03:36.400Z,9.50
2023-05-20T10:06:21.945Z,9.73
2023-05-20T10:09:04.919Z,9.70
2023-05-20T10:11:43.653Z,10.20
2023-05-20T10:14:26.948Z,9.90
2023-05-20T10:17:03.123Z,8.40
2023-05-20T10:19:33.897Z,8.10
2023-05-20T10:22:03.741Z,7.87
2023-05-20T10:24:33.615Z,7.60
2023-05-20T10:27:03.806Z,8.10
2023-05-20T10:29:44.482Z,7.80
2023-05-20T10:32:12.895Z,7.20
2023-05-20T10:34:48.408Z,6.73
2023-05-20T10:37:26.689Z,6.50
2023-05-20T10:40:05.225Z,6.50
2023-05-20T10:42:33.740Z,6.53
2023-05-20T10:45:04.251Z,5.90
2023-05-20T10:47:32.730Z,6.60
2023-05-20T10:50:02.256Z,6.50
2023-05-20T10:52:35.346Z,6.17
2023-05-20T10:55:05.714Z,6.50
2023-05-20T10:57:35.583Z,7.87
2023-05-20T11:00:11.834Z,6.23
2023-05-20T11:02:40.938Z,6.53
2023-05-20T11:05:12.817Z,5.90
2023-05-20T11:07:41.308Z,6.10
2023-05-20T11:10:11.125Z,6.40
2023-05-20T11:12:40.605Z,5.83
2023-05-20T11:15:13.285Z,5.80
2023-05-20T11:17:54.023Z,6.00
2023-05-20T11:20:22.841Z,6.27
2023-05-20T11:22:51.590Z,6.83
2023-05-20T11:25:20.788Z,5.47
2023-05-20T11:27:49.248Z,6.50
2023-05-20T11:30:20.688Z,5.40
2023-05-20T11:32:59.520Z,6.17
2023-05-20T11:35:30.269Z,6.00
2023-05-20T11:37:59.504Z,6.20
2023-05-20T11:40:35.715Z,6.37
2023-05-20T11:43:13.102Z,6.50
2023-05-20T11:45:43.777Z,6.23
2023-05-20T11:48:14.814Z,6.90
2023-05-20T11:50:44.293Z,6.30
2023-05-20T11:53:16.062Z,6.77
2023-05-20T11:55:48.179Z,6.70
2023-05-20T11:58:21.807Z,7.00
2023-05-20T12:00:57.182Z,5.63
2023-05-20T12:03:32.090Z,6.20
2023-05-20T12:06:02.999Z,6.17
2023-05-20T12:08:31.333Z,6.67
2023-05-20T12:10:59.860Z,6.80
2023-05-20T12:13:28.146Z,6.83
2023-05-20T12:15:57.934Z,6.67
2023-05-20T12:18:26.441Z,6.70
2023-05-20T12:20:54.714Z,6.60
2023-05-20T12:23:22.992Z,6.93
2023-05-20T12:25:51.719Z,6.67
2023-05-20T12:28:20.124Z,6.10
2023-05-20T12:30:48.462Z,5.30
2023-05-20T12:33:18.313Z,5.50
2023-05-20T12:35:46.976Z,5.30
2023-05-20T12:38:15.303Z,6.10
2023-05-20T12:40:44.201Z,5.67
2023-05-20T12:43:12.468Z,5.73
2023-05-20T12:45:40.858Z,5.40
2023-05-20T12:48:09.403Z,6.10
2023-05-20T12:50:39.169Z,6.67
2023-05-20T12:53:07.479Z,6.20
2023-05-20T12:55:35.779Z,6.17
2023-05-20T12:58:04.129Z,5.97
2023-05-20T13:00:32.862Z,6.90
2023-05-20T13:03:01.428Z,5.97
2023-05-20T13:05:29.749Z,5.80
2023-05-20T13:07:59.488Z,6.13
2023-05-20T13:10:27.821Z,6.30
2023-05-20T13:12:56.374Z,5.87
2023-05-20T13:15:25.065Z,7.07
2023-05-20T13:17:54.433Z,5.60
2023-05-20T13:20:23.188Z,5.50
2023-05-20T13:22:51.652Z,5.60
2023-05-20T13:25:21.744Z,6.60
2023-05-20T13:27:50.062Z,5.53
2023-05-20T13:30:18.400Z,5.67
2023-05-20T13:32:46.860Z,5.80
2023-05-20T13:35:16.980Z,6.53
2023-05-20T13:37:45.561Z,6.93
2023-05-20T13:40:14.681Z,6.63
2023-05-20T13:42:44.883Z,5.57
2023-05-20T13:45:13.532Z,7.23
2023-05-20T13:47:42.826Z,7.50
2023-05-20T13:50:12.442Z,6.87
2023-05-20T13:52:40.761Z,7.10
2023-05-20T13:55:09.896Z,7.40
2023-05-20T13:57:38.333Z,7.33
2023-05-20T14:00:10.038Z,6.87
2023-05-20T14:02:38.479Z,6.60
2023-05-20T14:05:08.565Z,7.20
2023-05-20T14:07:37.120Z,8.03
2023-05-20T14:10:06.549Z,6.30
2023-05-20T14:12:34.905Z,7.23
2023-05-20T14:15:03.228Z,7.47
2023-05-20T14:17:33.030Z,7.43
2023-05-20T14:20:02.025Z,6.87
2023-05-20T14:22:30.498Z,6.93
2023-05-20T14:24:59.566Z,6.90
2023-05-20T14:27:27.919Z,7.10
2023-05-20T14:29:56.304Z,7.00
2023-05-20T14:32:24.892Z,6.67
2023-05-20T14:34:55.005Z,6.30
2023-05-20T14:37:23.292Z,6.90
2023-05-20T14:39:51.776Z,7.47
2023-05-20T14:42:20.107Z,6.67
2023-05-20T14:44:49.801Z,6.90
2023-05-20T14:47:21.529Z,6.60
2023-05-20T14:49:51.308Z,7.00
2023-05-20T14:52:21.201Z,6.30
2023-05-20T14:54:49.512Z,6.93
2023-05-20T14:57:17.934Z,7.00
2023-05-20T14:59:47.801Z,6.60
2023-05-20T15:02:17.183Z,6.53
2023-05-20T15:04:47.031Z,7.80
2023-05-20T15:07:15.796Z,6.87
2023-05-20T15:09:45.501Z,6.90
2023-05-20T15:12:14.041Z,6.73
2023-05-20T15:14:42.435Z,6.40
2023-05-20T15:17:11.085Z,6.20
2023-05-20T15:19:41.937Z,6.80
2023-05-20T15:22:10.448Z,7.00
2023-05-20T15:24:38.744Z,6.30
2023-05-20T15:27:08.535Z,6.77
2023-05-20T15:29:38.858Z,6.50
2023-05-20T15:32:08.762Z,6.90
2023-05-20T15:34:38.099Z,7.00
2023-05-20T15:37:06.592Z,6.90
2023-05-20T15:39:38.892Z,6.50
2023-05-20T15:42:14.120Z,7.70
2023-05-20T15:44:42.485Z,7.53
2023-05-20T15:47:10.915Z,7.90
2023-05-20T15:49:39.339Z,8.40
2023-05-20T15:52:08.163Z,7.07
2023-05-20T15:54:36.505Z,6.53
2023-05-20T15:57:05.219Z,6.53
2023-05-20T15:59:35.153Z,6.43
2023-05-20T16:02:03.670Z,7.00
2023-05-20T16:04:32.702Z,7.23
2023-05-20T16:07:01.399Z,6.77
2023-05-20T16:09:29.709Z,6.47
2023-05-20T16:11:58.041Z,6.80
2023-05-20T16:14:26.557Z,6.10
2023-05-20T16:16:56.343Z,6.00
2023-05-20T16:19:24.672Z,6.23
2023-05-20T16:21:52.959Z,6.20
2023-05-20T16:24:22.395Z,6.47
2023-05-20T16:26:50.771Z,6.50
2023-05-20T16:29:19.064Z,5.60
2023-05-20T16:31:47.811Z,6.10
2023-05-20T16:34:17.743Z,6.40
2023-05-20T16:36:46.489Z,5.90
2023-05-20T16:39:14.950Z,5.77
2023-05-20T16:41:44.196Z,5.97
2023-05-20T16:44:12.561Z,6.10
2023-05-20T16:46:40.915Z,6.00
2023-05-20T16:49:09.196Z,5.53
2023-05-20T16:51:39.197Z,5.70
2023-05-20T16:54:08.354Z,5.50
2023-05-20T16:56:37.222Z,5.70
2023-05-20T16:59:05.747Z,5.50
2023-05-20T17:01:34.403Z,6.00
2023-05-20T17:04:02.896Z,6.30
2023-05-20T17:06:34.478Z,5.53
2023-05-20T17:09:04.789Z,5.50
2023-05-20T17:11:33.166Z,5.63
2023-05-20T17:14:03.162Z,5.70
2023-05-20T17:16:31.633Z,6.03
2023-05-20T17:19:00.050Z,5.80
2023-05-20T17:21:28.526Z,6.07
2023-05-20T17:23:57.017Z,5.60
2023-05-20T17:26:26.747Z,5.43
2023-05-20T17:28:55.231Z,5.30
2023-05-20T17:31:23.663Z,6.30
2023-05-20T17:33:52.404Z,5.40
2023-05-20T17:36:22.678Z,5.40
2023-05-20T17:38:51.546Z,6.80
2023-05-20T17:41:20.030Z,5.43
2023-05-20T17:43:49.955Z,5.33
2023-05-20T17:46:18.517Z,5.73
2023-05-20T17:48:46.773Z,5.47
2023-05-20T17:51:15.492Z,6.63
2023-05-20T17:53:43.826Z,5.57
2023-05-20T17:56:12.384Z,5.80
2023-05-20T17:58:41.628Z,5.40
2023-05-20T18:01:11.391Z,5.43
2023-05-20T18:03:40.829Z,6.40
2023-05-20T18:06:09.507Z,6.40
2023-05-20T18:08:37.899Z,6.17
2023-05-20T18:11:06.446Z,5.67
2023-05-20T18:13:34.710Z,6.83
2023-05-20T18:16:03.295Z,6.30
2023-05-20T18:18:33.094Z,5.80
2023-05-20T18:21:01.434Z,5.80
2023-05-20T18:23:29.816Z,6.20
2023-05-20T18:25:58.294Z,5.50
2023-05-20T18:28:26.741Z,6.80
2023-05-20T18:30:55.783Z,6.10
2023-05-20T18:33:24.896Z,5.80
2023-05-20T18:35:55.137Z,5.93
2023-05-20T18:38:23.499Z,6.13
2023-05-20T18:40:51.995Z,6.20
2023-05-20T18:43:20.444Z,5.37
2023-05-20T18:45:48.749Z,5.57
2023-05-20T18:48:26.268Z,5.13
2023-05-20T18:50:58.768Z,5.50
2023-05-20T18:53:27.125Z,5.37
2023-05-20T18:55:56.134Z,5.17
2023-05-20T18:58:24.501Z,5.47
2023-05-20T19:00:52.882Z,5.30
2023-05-20T19:03:21.469Z,5.10
2023-05-20T19:05:49.852Z,5.53
2023-05-20T19:08:19.685Z,5.73
2023-05-20T19:10:48.184Z,5.03
2023-05-20T19:13:16.569Z,5.30
2023-05-20T19:15:44.982Z,5.13
2023-05-20T19:18:14.326Z,5.13
2023-05-20T19:20:42.780Z,5.37
2023-05-20T19:23:11.224Z,5.67
2023-05-20T19:25:40.952Z,5.33
2023-05-20T19:28:09.357Z,5.90
2023-05-20T19:30:37.862Z,6.37
2023-05-20T19:33:07.002Z,5.70
2023-05-20T19:35:35.671Z,5.23
2023-05-20T19:38:05.102Z,6.10
2023-05-20T19:40:33.601Z,5.67
2023-05-20T19:43:03.398Z,6.17
2023-05-20T19:45:32.391Z,5.43
2023-05-20T19:48:00.912Z,6.73
2023-05-20T19:50:29.417Z,5.60
2023-05-20T19:52:58.493Z,7.27
2023-05-20T19:55:26.940Z,6.37
2023-05-20T19:57:55.910Z,4.93
2023-05-20T20:00:25.744Z,5.57
2023-05-20T20:02:54.291Z,6.20
2023-05-20T20:05:23.966Z,5.37
2023-05-20T20:07:52.398Z,6.00
2023-05-20T20:10:21.016Z,5.40
2023-05-20T20:12:49.914Z,5.43
2023-05-20T20:15:20.557Z,6.23
2023-05-20T20:17:52.465Z,5.40
2023-05-20T20:20:21.141Z,4.90
2023-05-20T20:22:49.683Z,5.13
2023-05-20T20:25:18.647Z,5.50
2023-05-20T20:27:48.696Z,6.07
2023-05-20T20:30:17.262Z,5.00
2023-05-20T20:32:48.464Z,5.27
2023-05-20T20:35:18.662Z,5.00
2023-05-20T20:37:47.057Z,5.03
2023-05-20T20:40:15.457Z,4.57
2023-05-20T20:42:45.426Z,5.73
2023-05-20T20:45:13.781Z,5.43
2023-05-20T20:47:43.955Z,5.87
2023-05-20T20:50:12.882Z,5.00
2023-05-20T20:52:42.805Z,6.07
2023-05-20T20:55:11.840Z,5.53
2023-05-20T20:57:42.085Z,5.53
2023-05-20T21:00:16.677Z,5.67
2023-05-20T21:02:45.258Z,5.20
2023-05-20T21:05:14.537Z,5.07
2023-05-20T21:07:46.230Z,5.83
2023-05-20T21:10:14.771Z,5.03
2023-05-20T21:12:43.172Z,5.07
2023-05-20T21:15:15.129Z,5.57
2023-05-20T21:17:43.606Z,5.80
2023-05-20T21:20:13.411Z,4.73
2023-05-20T21:22:41.891Z,4.97
2023-05-20T21:25:11.730Z,5.50
2023-05-20T21:27:41.426Z,5.30
2023-05-20T21:30:11.078Z,4.60
2023-05-20T21:32:39.970Z,5.27
2023-05-20T21:35:09.644Z,5.17
2023-05-20T21:37:37.944Z,5.57
2023-05-20T21:40:07.614Z,5.10
2023-05-20T21:42:37.925Z,5.00
2023-05-20T21:45:07.461Z,5.83
2023-05-20T21:47:36.062Z,5.87
2023-05-20T21:50:04.737Z,6.03
2023-05-20T21:52:33.252Z,5.30
2023-05-20T21:55:01.609Z,5.63
2023-05-20T21:57:29.945Z,5.97
2023-05-20T21:59:59.692Z,5.63
2023-05-20T22:02:28.219Z,5.50
2023-05-20T22:04:57.767Z,5.40
2023-05-20T22:07:26.329Z,5.97
2023-05-20T22:09:54.877Z,5.50
2023-05-20T22:12:23.296Z,7.30
2023-05-20T22:14:51.633Z,5.63
2023-05-20T22:17:21.917Z,5.30
2023-05-20T22:19:50.457Z,5.10
2023-05-20T22:22:19.028Z,5.33
2023-05-20T22:24:47.659Z,5.40
2023-05-20T22:27:15.964Z,5.53
2023-05-20T22:29:44.433Z,5.23
2023-05-20T22:32:12.744Z,5.67
2023-05-20T22:34:42.905Z,5.83
2023-05-20T22:37:11.914Z,4.77
2023-05-20T22:39:40.408Z,5.53
2023-05-20T22:42:08.759Z,5.43
2023-05-20T22:44:37.122Z,5.47
2023-05-20T22:47:05.700Z,5.73
2023-05-20T22:49:34.042Z,5.30
2023-05-20T22:52:03.773Z,5.70
2023-05-20T22:54:32.118Z,5.80
2023-05-20T22:57:00.453Z,4.90
2023-05-20T22:59:31.183Z,5.50
2023-05-20T23:01:59.487Z,4.77
2023-05-20T23:04:27.873Z,5.03
2023-05-20T23:06:59.178Z,6.30
2023-05-20T23:09:29.323Z,4.83
2023-05-20T23:11:57.605Z,5.10
2023-05-20T23:14:26.097Z,5.90
2023-05-20T23:16:54.546Z,5.70
2023-05-20T23:19:23.081Z,5.10
2023-05-20T23:21:51.518Z,6.07
2023-05-20T23:24:19.907Z,4.97
2023-05-20T23:26:49.644Z,5.00
2023-05-20T23:29:18.064Z,5.80
2023-05-20T23:31:47.598Z,5.57
2023-05-20T23:34:17.105Z,6.37
2023-05-20T23:36:45.817Z,5.10
2023-05-20T23:39:15.234Z,5.23
2023-05-20T23:41:45.195Z,5.47
2023-05-20T23:44:15.281Z,5.73
2023-05-20T23:46:45.034Z,5.13
2023-05-20T23:49:13.395Z,4.83
2023-05-20T23:51:42.242Z,5.20
2023-05-20T23:54:10.570Z,5.20
2023-05-20T23:56:38.914Z,5.53
2023-05-20T23:59:07.349Z,5.90
